Time;durP1;ratioP1;P1;durP2;ratioP2;P2;SDS_P1;SDS_P2;PMS_P1;PMS_P2;Temp;Humidity;BMP_temperature;BMP_pressure;BME280_temperature;BME280_humidity;BME280_pressure;Samples;Min_cycle;Max_cycle;Signal;HPM_P1;HPM_P2
2022/04/23 00:02:24;;;;;;;0.73;0.60;;;19.30;99.90;;;;;;5033145;28;20197;-77
2022/04/23 00:04:54;;;;;;;3.58;0.88;;;19.30;99.90;;;;;;5033464;28;20226;-77
2022/04/23 00:07:27;;;;;;;2.55;0.82;;;19.30;99.90;;;;;;5033362;28;20190;-77
2022/04/23 00:09:58;;;;;;;7.38;1.05;;;19.20;99.90;;;;;;5051110;28;20204;-77
2022/04/23 00:12:28;;;;;;;1.20;0.60;;;19.20;99.90;;;;;;5053225;28;20197;-77
2022/04/23 00:14:59;;;;;;;2.20;0.52;;;19.30;99.90;;;;;;5052973;28;20676;-77
2022/04/23 00:17:29;;;;;;;2.75;0.73;;;19.30;99.90;;;;;;5053125;28;20244;-77
2022/04/23 00:20:00;;;;;;;2.22;0.68;;;19.50;99.90;;;;;;5040592;28;20598;-77
2022/04/23 00:22:33;;;;;;;1.98;0.60;;;19.60;99.90;;;;;;5045286;28;20244;-76
2022/04/23 00:25:04;;;;;;;2.47;0.77;;;19.60;99.90;;;;;;5032458;28;20206;-77
2022/04/23 00:27:34;;;;;;;1.95;0.70;;;19.60;99.90;;;;;;5039099;28;20194;-77
2022/04/23 00:30:05;;;;;;;4.88;0.85;;;19.70;99.90;;;;;;5034226;28;20186;-77
2022/04/23 00:32:36;;;;;;;0.63;0.45;;;19.70;99.90;;;;;;5041443;28;20903;-77
2022/04/23 00:35:07;;;;;;;1.73;0.50;;;19.80;99.90;;;;;;5043806;28;20637;-76
2022/04/23 00:37:39;;;;;;;1.42;0.70;;;20.10;99.90;;;;;;5032611;28;20278;-77
2022/04/23 00:40:16;;;;;;;2.97;0.50;;;20.20;99.90;;;;;;5045224;28;20193;-77
2022/04/23 00:42:52;;;;;;;3.30;0.70;;;20.20;99.90;;;;;;5046475;28;20662;-77
2022/04/23 00:45:23;;;;;;;1.00;0.55;;;20.30;99.90;;;;;;5037091;28;20229;-77
2022/04/23 00:47:54;;;;;;;5.07;1.00;;;20.30;99.90;;;;;;5036127;28;20186;-77
2022/04/23 00:50:25;;;;;;;2.95;0.80;;;20.30;99.90;;;;;;5047720;28;20221;-77
2022/04/23 00:53:03;;;;;;;1.52;0.70;;;20.20;99.90;;;;;;5048625;28;20241;-77
2022/04/23 00:55:35;;;;;;;1.80;0.50;;;20.20;99.90;;;;;;5036095;28;20244;-77
2022/04/23 00:58:06;;;;;;;2.58;0.50;;;20.30;99.90;;;;;;5044062;28;20179;-77
2022/04/23 01:00:40;;;;;;;3.45;0.50;;;20.40;99.90;;;;;;5036152;28;20236;-77
2022/04/23 01:03:12;;;;;;;7.10;3.15;;;20.60;99.90;;;;;;5039599;28;20198;-77
2022/04/23 01:05:46;;;;;;;2.40;0.95;;;20.80;99.90;;;;;;5037886;28;20237;-77
2022/04/23 01:08:20;;;;;;;1.52;0.65;;;21.00;99.90;;;;;;5052661;28;20197;-77
2022/04/23 01:10:52;;;;;;;2.35;0.70;;;21.10;99.90;;;;;;5038603;28;20194;-77
2022/04/23 01:13:23;;;;;;;1.45;0.55;;;21.00;99.90;;;;;;5030477;28;20715;-76
2022/04/23 01:16:04;;;;;;;2.92;0.73;;;20.90;99.90;;;;;;5034177;28;20205;-77
2022/04/23 01:18:36;;;;;;;1.52;0.77;;;20.90;99.90;;;;;;5039992;28;20582;-77
2022/04/23 01:21:10;;;;;;;2.45;0.63;;;21.00;99.90;;;;;;5033598;28;20190;-78
2022/04/23 01:23:42;;;;;;;3.58;0.57;;;21.00;99.90;;;;;;5035487;28;20209;-79
2022/04/23 01:26:14;;;;;;;1.65;0.52;;;21.30;99.90;;;;;;5037840;28;20201;-77
2022/04/23 01:28:45;;;;;;;3.17;0.68;;;21.50;99.90;;;;;;5051322;28;20192;-78
2022/04/23 01:31:15;;;;;;;4.28;0.57;;;21.50;99.90;;;;;;5046930;28;20195;-77
2022/04/23 01:33:46;;;;;;;1.25;0.40;;;21.40;99.90;;;;;;5024765;28;20182;-77
2022/04/23 01:36:19;;;;;;;3.13;0.55;;;21.20;99.90;;;;;;5047125;28;20247;-77
2022/04/23 01:38:49;;;;;;;1.90;0.45;;;21.10;99.90;;;;;;5042135;28;20600;-77
2022/04/23 01:41:20;;;;;;;2.53;0.50;;;20.90;99.90;;;;;;5042277;28;20243;-77
2022/04/23 01:43:52;;;;;;;1.67;0.45;;;20.80;99.90;;;;;;5037569;28;20208;-77
2022/04/23 01:46:22;;;;;;;1.00;0.30;;;20.70;99.90;;;;;;5038274;28;20198;-77
2022/04/23 01:48:53;;;;;;;2.00;0.43;;;20.70;99.90;;;;;;5037780;28;20240;-77
2022/04/23 01:51:25;;;;;;;3.55;0.50;;;20.70;99.90;;;;;;5044173;28;20234;-77
2022/04/23 01:53:56;;;;;;;1.65;0.38;;;20.90;99.90;;;;;;5038590;28;20237;-77
2022/04/23 01:56:27;;;;;;;1.27;0.40;;;21.10;99.90;;;;;;5037267;28;20248;-77
2022/04/23 01:58:58;;;;;;;0.60;0.30;;;21.30;99.90;;;;;;5034677;28;20202;-77
2022/04/23 02:01:29;;;;;;;3.25;0.40;;;21.60;99.90;;;;;;5048674;28;20296;-77
2022/04/23 02:04:00;;;;;;;1.90;0.43;;;21.80;99.90;;;;;;5034592;28;20187;-77
2022/04/23 02:06:35;;;;;;;1.42;0.40;;;21.90;99.90;;;;;;5039484;28;20207;-78
2022/04/23 02:09:05;;;;;;;2.35;0.40;;;22.00;99.90;;;;;;5039843;28;20718;-77
2022/04/23 02:11:36;;;;;;;4.78;0.52;;;21.90;99.90;;;;;;5035154;28;20963;-78
2022/04/23 02:14:07;;;;;;;1.95;0.55;;;22.00;99.90;;;;;;5040244;28;20252;-78
2022/04/23 02:16:39;;;;;;;1.58;0.38;;;22.10;99.90;;;;;;5044808;28;20207;-77
2022/04/23 02:19:09;;;;;;;0.95;0.35;;;22.10;99.90;;;;;;5047792;28;20198;-77
2022/04/23 02:21:43;;;;;;;1.25;0.30;;;21.90;99.90;;;;;;5031009;28;20190;-78
2022/04/23 02:24:15;;;;;;;1.15;0.30;;;21.80;99.90;;;;;;5035727;28;20218;-77
2022/04/23 02:26:46;;;;;;;2.55;0.60;;;21.90;99.90;;;;;;5038571;28;20244;-78
2022/04/23 02:29:17;;;;;;;1.55;0.60;;;21.90;99.90;;;;;;5040032;28;20198;-77
2022/04/23 02:31:47;;;;;;;0.80;0.32;;;21.80;99.90;;;;;;5039040;28;20197;-78
2022/04/23 02:34:18;;;;;;;1.27;0.50;;;21.90;99.90;;;;;;5035066;28;20268;-77
2022/04/23 02:36:51;;;;;;;1.70;0.50;;;21.80;99.90;;;;;;5039253;28;20234;-77
2022/04/23 02:39:21;;;;;;;1.80;0.60;;;21.60;99.90;;;;;;5037497;28;20201;-77
2022/04/23 02:41:52;;;;;;;1.45;0.50;;;21.40;99.90;;;;;;5038237;28;20202;-77
2022/04/23 02:44:22;;;;;;;2.85;0.55;;;21.30;99.90;;;;;;5043494;28;20209;-77
2022/04/23 02:46:53;;;;;;;5.38;0.50;;;21.20;99.90;;;;;;5031690;28;20199;-77
2022/04/23 02:49:24;;;;;;;1.13;0.50;;;21.10;99.90;;;;;;5041935;28;20206;-77
2022/04/23 02:51:56;;;;;;;0.95;0.40;;;21.10;99.90;;;;;;5036385;28;20236;-78
2022/04/23 02:54:27;;;;;;;0.60;0.35;;;21.60;99.90;;;;;;5043381;28;20190;-78
2022/04/23 02:56:58;;;;;;;2.35;0.50;;;21.80;99.90;;;;;;5042420;28;20202;-78
2022/04/23 02:59:28;;;;;;;1.45;0.57;;;22.10;99.90;;;;;;5043235;28;20243;-78
2022/04/23 03:01:59;;;;;;;1.95;0.40;;;22.30;99.90;;;;;;5031787;28;20264;-78
2022/04/23 03:04:30;;;;;;;1.63;0.40;;;22.40;99.90;;;;;;5032348;28;20244;-78
2022/04/23 03:07:03;;;;;;;3.22;0.60;;;22.60;99.90;;;;;;5041250;28;20293;-77
2022/04/23 03:09:34;;;;;;;2.50;0.50;;;22.60;99.90;;;;;;5033630;28;20194;-77
2022/04/23 03:12:05;;;;;;;1.85;0.55;;;22.50;99.90;;;;;;5034066;28;20189;-77
2022/04/23 03:14:35;;;;;;;1.58;0.75;;;22.30;99.90;;;;;;5038897;28;20197;-78
2022/04/23 03:17:06;;;;;;;1.70;0.65;;;22.00;99.90;;;;;;5037865;28;20209;-77
2022/04/23 03:19:37;;;;;;;2.47;0.60;;;21.70;99.90;;;;;;5040884;28;20200;-77
2022/04/23 03:22:09;;;;;;;2.70;0.65;;;21.50;99.90;;;;;;5042685;28;20199;-77
2022/04/23 03:24:40;;;;;;;3.10;0.60;;;21.40;99.90;;;;;;5039536;28;20264;-77
2022/04/23 03:27:11;;;;;;;3.28;0.60;;;21.30;99.90;;;;;;5035101;28;20198;-76
2022/04/23 03:29:41;;;;;;;1.38;0.50;;;21.40;99.90;;;;;;5043351;28;20240;-77
2022/04/23 03:32:12;;;;;;;2.38;0.55;;;21.40;99.90;;;;;;5033825;28;20198;-78
2022/04/23 03:34:43;;;;;;;4.10;0.52;;;21.40;99.90;;;;;;5036535;28;20209;-77
2022/04/23 03:37:16;;;;;;;2.85;0.60;;;21.60;99.90;;;;;;5038794;28;20230;-79
2022/04/23 03:39:46;;;;;;;1.90;0.50;;;21.80;99.90;;;;;;5039690;28;20194;-76
2022/04/23 03:42:17;;;;;;;2.25;0.70;;;21.80;99.90;;;;;;5040063;28;20623;-76
2022/04/23 03:44:48;;;;;;;1.35;0.50;;;21.80;99.90;;;;;;5040349;28;20222;-77
2022/04/23 03:47:18;;;;;;;2.05;0.50;;;21.70;99.90;;;;;;5038374;28;20186;-76
2022/04/23 03:49:49;;;;;;;1.80;0.50;;;21.70;99.90;;;;;;5042661;28;20221;-76
2022/04/23 03:52:21;;;;;;;4.53;0.70;;;21.70;99.90;;;;;;5044273;28;20762;-77
2022/04/23 03:54:52;;;;;;;1.77;0.52;;;21.70;99.90;;;;;;5039652;28;20197;-78
2022/04/23 03:57:22;;;;;;;1.85;0.45;;;21.60;99.90;;;;;;5036749;28;20203;-76
2022/04/23 03:59:53;;;;;;;1.00;0.43;;;21.60;99.90;;;;;;5040419;28;20193;-77
2022/04/23 04:02:24;;;;;;;1.42;0.45;;;21.50;99.90;;;;;;5042574;28;20201;-77
2022/04/23 04:04:55;;;;;;;1.45;0.40;;;21.50;99.90;;;;;;5032390;28;20236;-76
2022/04/23 04:07:27;;;;;;;1.73;0.60;;;21.40;99.90;;;;;;5043003;28;20194;-76
2022/04/23 04:09:59;;;;;;;1.13;0.50;;;21.40;99.90;;;;;;5031735;28;20244;-77
2022/04/23 04:12:30;;;;;;;1.50;0.40;;;21.40;99.90;;;;;;5040513;28;20197;-76
2022/04/23 04:15:01;;;;;;;1.73;0.50;;;21.50;99.90;;;;;;5035207;28;20202;-76
2022/04/23 04:17:31;;;;;;;6.85;0.93;;;21.50;99.90;;;;;;5042616;28;20268;-77
2022/04/23 04:20:02;;;;;;;2.03;0.70;;;21.50;99.90;;;;;;5052665;28;20185;-77
2022/04/23 04:22:35;;;;;;;1.65;0.50;;;21.50;99.90;;;;;;5042679;28;20194;-77
2022/04/23 04:25:05;;;;;;;1.85;0.40;;;21.50;99.90;;;;;;5034477;28;20716;-76
2022/04/23 04:27:36;;;;;;;1.70;0.60;;;21.50;99.90;;;;;;5039004;28;20190;-76
2022/04/23 04:30:08;;;;;;;0.90;0.50;;;21.50;99.90;;;;;;5036587;28;20256;-76
2022/04/23 04:32:41;;;;;;;3.03;0.52;;;21.50;99.90;;;;;;5048560;28;20281;-77
2022/04/23 04:35:12;;;;;;;1.83;0.40;;;21.40;99.90;;;;;;5045730;28;20197;-77
2022/04/23 04:37:45;;;;;;;3.83;0.43;;;21.20;99.90;;;;;;5050509;28;20208;-77
2022/04/23 04:40:16;;;;;;;1.90;0.40;;;21.10;99.90;;;;;;5039095;28;20252;-76
2022/04/23 04:42:47;;;;;;;1.60;0.30;;;20.90;99.90;;;;;;5040371;28;20194;-76
2022/04/23 04:45:17;;;;;;;1.05;0.30;;;20.80;99.90;;;;;;5035574;28;20210;-77
2022/04/23 04:47:48;;;;;;;2.58;0.40;;;20.70;99.90;;;;;;5043161;28;20186;-76
2022/04/23 04:50:19;;;;;;;4.38;0.60;;;20.80;99.90;;;;;;5034872;28;20218;-77
2022/04/23 04:52:51;;;;;;;5.20;1.00;;;20.90;99.90;;;;;;5046806;28;20185;-77
2022/04/23 04:55:22;;;;;;;2.45;0.40;;;21.00;99.90;;;;;;5035559;28;20187;-76
2022/04/23 04:57:53;;;;;;;2.38;0.40;;;21.00;99.90;;;;;;5045301;28;20651;-77
2022/04/23 05:00:24;;;;;;;1.35;0.40;;;21.00;99.90;;;;;;5049995;28;20197;-76
2022/04/23 05:02:55;;;;;;;1.80;0.50;;;21.00;99.90;;;;;;5035957;28;20634;-76
2022/04/23 05:05:25;;;;;;;1.85;0.40;;;21.10;99.90;;;;;;5047808;28;20207;-76
2022/04/23 05:07:58;;;;;;;0.30;0.30;;;21.10;99.90;;;;;;5036307;28;20689;-76
2022/04/23 05:10:28;;;;;;;1.08;0.20;;;21.00;99.90;;;;;;5035745;28;20201;-77
2022/04/23 05:12:59;;;;;;;2.15;0.60;;;21.10;99.90;;;;;;5040970;28;20190;-76
2022/04/23 05:15:30;;;;;;;1.27;0.30;;;21.00;99.90;;;;;;5016349;28;20616;-76
2022/04/23 05:18:01;;;;;;;1.05;0.30;;;21.10;99.90;;;;;;5030505;28;20201;-76
2022/04/23 05:20:32;;;;;;;0.68;0.30;;;21.10;99.90;;;;;;5049461;28;20677;-76
2022/04/23 05:23:05;;;;;;;0.68;0.30;;;21.10;99.90;;;;;;5043577;28;20284;-76
2022/04/23 05:25:35;;;;;;;1.75;0.38;;;21.10;99.90;;;;;;5039937;28;20267;-79
2022/04/23 05:28:06;;;;;;;1.88;0.20;;;21.00;99.90;;;;;;5046521;28;20198;-78
2022/04/23 05:30:39;;;;;;;1.17;0.30;;;21.10;99.90;;;;;;5034547;28;20198;-77
2022/04/23 05:33:10;;;;;;;1.35;0.20;;;21.00;99.90;;;;;;5035978;28;20202;-77
2022/04/23 05:35:41;;;;;;;1.23;0.47;;;21.00;99.90;;;;;;5043169;28;20259;-77
2022/04/23 05:38:13;;;;;;;4.78;0.50;;;21.00;99.90;;;;;;5047224;28;20248;-77
2022/04/23 05:40:44;;;;;;;3.03;0.30;;;21.00;99.90;;;;;;5029614;28;20661;-76
2022/04/23 05:43:15;;;;;;;1.58;0.38;;;21.00;99.90;;;;;;5035119;28;20232;-77
2022/04/23 05:45:45;;;;;;;0.32;0.30;;;20.90;99.90;;;;;;5038039;28;20221;-77
2022/04/23 05:48:16;;;;;;;4.03;0.40;;;20.90;99.90;;;;;;5050888;28;20325;-77
2022/04/23 05:50:46;;;;;;;1.20;0.30;;;20.90;99.90;;;;;;5039831;28;20665;-76
2022/04/23 05:53:19;;;;;;;0.47;0.20;;;20.90;99.90;;;;;;5041111;28;20197;-76
2022/04/23 05:55:50;;;;;;;1.80;0.38;;;20.90;99.90;;;;;;5037846;28;20198;-76
2022/04/23 05:58:20;;;;;;;0.95;0.38;;;20.80;99.90;;;;;;5037232;28;20281;-76
2022/04/23 06:00:53;;;;;;;1.23;0.40;;;20.80;99.90;;;;;;5031373;28;20204;-78
2022/04/23 06:03:23;;;;;;;0.90;0.10;;;20.70;99.90;;;;;;5032263;28;20240;-76
2022/04/23 06:05:54;;;;;;;4.80;0.40;;;20.70;99.90;;;;;;5033102;28;20713;-77
2022/04/23 06:08:26;;;;;;;1.00;0.40;;;20.60;99.90;;;;;;5033901;28;20198;-78
2022/04/23 06:10:57;;;;;;;2.00;0.40;;;20.60;99.90;;;;;;5034889;28;20205;-80
2022/04/23 06:13:28;;;;;;;2.75;0.20;;;20.60;99.90;;;;;;5034520;28;20201;-77
2022/04/23 06:15:58;;;;;;;0.73;0.30;;;20.60;99.90;;;;;;5034844;28;20197;-78
2022/04/23 06:18:29;;;;;;;1.58;0.43;;;20.60;99.90;;;;;;5034332;28;20195;-76
2022/04/23 06:21:00;;;;;;;2.15;0.40;;;20.60;99.90;;;;;;5034899;28;20194;-76
2022/04/23 06:23:32;;;;;;;1.10;0.30;;;20.60;99.90;;;;;;5034139;28;20237;-77
2022/04/23 06:26:03;;;;;;;2.17;0.40;;;20.50;99.90;;;;;;5030943;28;20207;-77
2022/04/23 06:28:34;;;;;;;2.17;0.28;;;20.50;99.90;;;;;;5035874;28;20204;-77
2022/04/23 06:31:04;;;;;;;0.68;0.20;;;20.40;99.90;;;;;;5041142;28;20549;-76
2022/04/23 06:33:35;;;;;;;4.30;0.20;;;20.30;99.90;;;;;;5034639;28;20213;-76
2022/04/23 06:36:06;;;;;;;24.95;13.85;;;20.20;99.90;;;;;;5034784;28;20195;-76
2022/04/23 06:38:38;;;;;;;13.18;8.25;;;20.10;99.90;;;;;;5033671;28;20182;-77
2022/04/23 06:41:09;;;;;;;22.63;18.67;;;20.00;99.90;;;;;;5034654;28;20661;-77
2022/04/23 06:43:40;;;;;;;26.45;20.00;;;20.00;99.90;;;;;;5033712;28;20795;-76
2022/04/23 06:46:10;;;;;;;3.72;3.08;;;19.90;99.90;;;;;;5034535;28;20222;-76
2022/04/23 06:48:41;;;;;;;8.57;4.53;;;19.80;99.90;;;;;;5033933;28;20194;-75
2022/04/23 06:51:11;;;;;;;50.20;36.13;;;19.80;99.90;;;;;;5045288;28;20291;-77
2022/04/23 06:53:44;;;;;;;35.10;24.02;;;19.70;99.90;;;;;;5034652;28;20642;-76
2022/04/23 06:56:15;;;;;;;7.00;4.47;;;19.70;99.90;;;;;;5041323;28;20197;-76
2022/04/23 06:58:48;;;;;;;6.95;4.45;;;19.70;99.90;;;;;;5040796;28;20209;-76
2022/04/23 07:01:19;;;;;;;6.22;3.88;;;19.70;99.90;;;;;;5033089;28;20276;-76
2022/04/23 07:03:49;;;;;;;13.48;7.60;;;19.70;99.90;;;;;;5033155;28;20210;-76
2022/04/23 07:06:20;;;;;;;16.40;10.57;;;19.60;99.90;;;;;;5034155;28;20244;-76
2022/04/23 07:08:52;;;;;;;7.60;4.63;;;19.60;99.90;;;;;;5036905;28;20182;-76
2022/04/23 07:11:23;;;;;;;7.32;5.03;;;19.60;99.90;;;;;;5033785;28;20533;-76
2022/04/23 07:13:54;;;;;;;9.68;5.60;;;19.50;99.90;;;;;;5025083;28;20197;-78
2022/04/23 07:16:25;;;;;;;23.50;12.65;;;19.40;99.90;;;;;;5026953;28;20198;-76
2022/04/23 07:18:55;;;;;;;68.82;36.97;;;19.30;99.90;;;;;;5027034;28;20253;-77
2022/04/23 07:21:26;;;;;;;67.95;39.38;;;19.30;99.90;;;;;;5028567;28;20310;-77
2022/04/23 07:24:11;;;;;;;214.90;105.85;;;19.30;99.90;;;;;;5026615;28;20251;-76
2022/04/23 07:26:42;;;;;;;115.28;58.03;;;19.20;99.90;;;;;;5027531;28;20240;-76
2022/04/23 07:29:14;;;;;;;317.95;129.55;;;19.20;99.90;;;;;;5027650;28;20298;-76
2022/04/23 07:31:44;;;;;;;120.35;59.05;;;19.20;99.90;;;;;;5026391;28;20205;-76
2022/04/23 07:39:50;;;;;;;421.95;165.80;;;19.00;99.90;;;;;;5023672;28;20255;-76
2022/04/23 07:42:21;;;;;;;315.80;132.63;;;19.00;99.90;;;;;;5023506;28;20198;-76
2022/04/23 07:44:52;;;;;;;192.02;91.28;;;18.90;99.90;;;;;;5025994;28;20201;-76
2022/04/23 07:47:22;;;;;;;153.73;76.15;;;18.80;99.90;;;;;;5026966;28;20225;-75
2022/04/23 07:49:53;;;;;;;143.52;69.70;;;18.80;99.90;;;;;;5028342;28;20296;-76
2022/04/23 07:52:23;;;;;;;100.78;53.67;;;18.80;99.90;;;;;;5033105;28;20230;-76
2022/04/23 07:54:56;;;;;;;158.25;77.90;;;18.70;99.90;;;;;;5023377;28;20194;-76
2022/04/23 07:57:27;;;;;;;182.25;94.32;;;18.70;99.90;;;;;;5043154;28;20205;-76
2022/04/23 07:59:57;;;;;;;195.68;96.53;;;18.60;99.90;;;;;;5043798;28;20202;-76
2022/04/23 08:02:28;;;;;;;148.45;70.38;;;18.60;99.90;;;;;;5032436;28;20194;-76
2022/04/23 08:04:59;;;;;;;119.97;59.00;;;18.60;99.90;;;;;;5033037;28;20247;-76
2022/04/23 08:07:31;;;;;;;100.95;53.85;;;18.60;99.90;;;;;;5022041;28;20210;-76
2022/04/23 08:10:03;;;;;;;88.32;48.67;;;18.50;99.90;;;;;;5038722;28;20210;-76
2022/04/23 08:12:35;;;;;;;71.78;41.70;;;18.50;99.90;;;;;;5026110;28;20281;-76
2022/04/23 08:15:07;;;;;;;60.83;35.60;;;18.40;99.90;;;;;;5028959;28;20198;-76
2022/04/23 08:17:37;;;;;;;52.95;30.33;;;18.40;99.90;;;;;;5047594;28;20198;-77
2022/04/23 08:20:10;;;;;;;40.45;24.33;;;18.40;99.90;;;;;;5033984;28;20229;-77
2022/04/23 08:22:41;;;;;;;30.20;19.23;;;18.40;99.90;;;;;;5033098;28;20532;-76
2022/04/23 08:25:14;;;;;;;18.98;10.82;;;18.30;99.90;;;;;;5030718;28;20198;-77
2022/04/23 08:27:52;;;;;;;15.30;8.57;;;18.30;99.90;;;;;;5032327;28;20222;-77
2022/04/23 08:30:37;;;;;;;10.38;6.32;;;18.30;99.90;;;;;;5032200;28;20201;-76
2022/04/23 08:33:08;;;;;;;9.88;5.53;;;18.20;99.90;;;;;;5031353;28;20194;-76
2022/04/23 08:35:40;;;;;;;8.43;4.75;;;18.30;99.90;;;;;;5032560;28;20191;-77
2022/04/23 08:38:11;;;;;;;7.47;4.63;;;18.30;99.90;;;;;;5030945;28;20264;-77
2022/04/23 08:40:46;;;;;;;8.20;4.15;;;18.20;99.90;;;;;;5032521;28;20187;-76
2022/04/23 08:43:17;;;;;;;7.32;3.47;;;18.20;99.90;;;;;;5031821;28;20208;-76
2022/04/23 08:45:48;;;;;;;4.55;3.03;;;18.20;99.90;;;;;;5027522;28;20198;-77
2022/04/23 08:48:20;;;;;;;8.00;3.20;;;18.10;99.90;;;;;;5048040;28;20255;-77
2022/04/23 08:50:56;;;;;;;6.82;3.13;;;18.10;99.90;;;;;;5034941;28;20287;-77
2022/04/23 08:53:32;;;;;;;5.95;3.20;;;18.10;99.90;;;;;;5032760;28;20246;-76
2022/04/23 08:56:05;;;;;;;6.47;3.13;;;18.10;99.90;;;;;;5030458;28;20649;-77
2022/04/23 08:58:36;;;;;;;7.32;3.20;;;18.10;99.90;;;;;;5032410;28;20194;-77
2022/04/23 09:01:06;;;;;;;5.15;3.42;;;18.10;99.90;;;;;;5036830;28;20221;-76
2022/04/23 09:03:37;;;;;;;6.07;3.05;;;18.00;99.90;;;;;;5035561;28;20202;-77
2022/04/23 09:06:08;;;;;;;4.47;2.40;;;18.00;99.90;;;;;;5042367;28;20206;-77
2022/04/23 09:08:38;;;;;;;5.13;2.70;;;18.00;99.90;;;;;;5036885;28;20662;-76
2022/04/23 09:11:12;;;;;;;5.45;2.10;;;17.90;99.90;;;;;;5036057;28;20244;-77
2022/04/23 09:13:43;;;;;;;17.10;8.65;;;17.90;99.90;;;;;;5041816;28;20194;-77
2022/04/23 09:24:51;;;;;;;193.02;76.63;;;17.70;99.90;;;;;;5033901;28;20194;-77
2022/04/23 09:27:30;;;;;;;147.15;63.95;;;17.70;99.90;;;;;;5038900;28;20218;-77
2022/04/23 09:30:06;;;;;;;81.22;40.13;;;17.60;99.90;;;;;;5033803;28;20256;-77
2022/04/23 09:32:37;;;;;;;47.28;25.10;;;17.60;99.90;;;;;;5033896;28;20264;-77
2022/04/23 09:35:10;;;;;;;30.88;15.85;;;17.60;99.90;;;;;;5032213;28;20198;-77
2022/04/23 09:40:29;;;;;;;21.10;10.02;;;17.50;99.90;;;;;;5034973;28;20574;-77
2022/04/23 09:43:05;;;;;;;13.70;7.00;;;17.50;99.90;;;;;;5035943;28;20210;-77
2022/04/23 09:45:41;;;;;;;10.70;4.80;;;17.50;99.90;;;;;;5035349;28;20206;-77
2022/04/23 09:48:19;;;;;;;9.57;4.05;;;17.40;99.90;;;;;;5040375;28;20217;-76
2022/04/23 09:50:51;;;;;;;8.10;3.88;;;17.40;99.90;;;;;;5047553;28;20824;-77
2022/04/23 09:53:25;;;;;;;6.25;3.60;;;17.40;99.90;;;;;;5051015;28;20197;-77
2022/04/23 09:55:59;;;;;;;7.22;3.80;;;17.30;99.90;;;;;;5051260;28;20722;-77
2022/04/23 09:58:33;;;;;;;7.97;3.75;;;17.30;99.90;;;;;;5052909;28;20194;-77
2022/04/23 10:01:04;;;;;;;6.10;2.88;;;17.30;99.90;;;;;;5035155;28;20193;-77
2022/04/23 10:03:35;;;;;;;7.00;3.30;;;17.30;99.90;;;;;;5039774;28;20611;-77
2022/04/23 10:06:09;;;;;;;8.57;3.13;;;17.30;99.90;;;;;;5047417;28;20344;-77
2022/04/23 10:08:42;;;;;;;7.25;3.15;;;17.30;99.90;;;;;;5044543;28;20266;-77
2022/04/23 10:11:19;;;;;;;8.88;3.05;;;17.30;99.90;;;;;;5046348;28;20269;-77
2022/04/23 10:13:55;;;;;;;8.43;3.45;;;17.20;99.90;;;;;;5034221;28;20194;-76
2022/04/23 10:16:27;;;;;;;5.68;3.28;;;17.30;99.90;;;;;;5035901;28;20198;-76
2022/04/23 10:18:59;;;;;;;7.03;3.53;;;17.20;99.90;;;;;;5025432;28;20565;-76
2022/04/23 10:21:34;;;;;;;5.57;2.92;;;17.20;99.90;;;;;;5044242;28;20202;-76
2022/04/23 10:24:10;;;;;;;6.45;2.90;;;17.20;99.90;;;;;;5042873;28;20236;-76
2022/04/23 10:26:48;;;;;;;6.47;3.05;;;17.10;99.90;;;;;;5033962;28;20217;-77
2022/04/23 10:29:23;;;;;;;6.78;2.75;;;17.10;99.90;;;;;;5034086;28;20190;-76
2022/04/23 10:32:24;;;;;;;9.73;3.35;;;17.10;99.90;;;;;;5036484;28;20637;-77
2022/04/23 10:34:55;;;;;;;6.68;3.00;;;17.10;99.90;;;;;;5038456;28;20284;-77
2022/04/23 10:37:27;;;;;;;6.07;2.90;;;17.00;99.90;;;;;;5039900;28;20617;-77
2022/04/23 10:40:16;;;;;;;6.82;2.75;;;17.00;99.90;;;;;;5031187;28;20208;-77
2022/04/23 10:43:12;;;;;;;6.28;2.75;;;17.00;99.90;;;;;;5037369;28;20210;-76
2022/04/23 10:45:45;;;;;;;5.70;2.63;;;17.00;99.90;;;;;;5035976;28;20619;-76
2022/04/23 10:48:32;;;;;;;6.28;2.67;;;17.00;99.90;;;;;;5041442;28;20228;-77
2022/04/23 10:51:10;;;;;;;6.28;2.78;;;17.00;99.90;;;;;;5031153;28;20248;-77
2022/04/23 10:53:57;;;;;;;5.25;2.85;;;17.00;99.90;;;;;;5036780;28;20198;-77
2022/04/23 10:56:27;;;;;;;6.82;2.65;;;17.00;99.90;;;;;;5038842;28;20198;-77
2022/04/23 10:58:58;;;;;;;8.63;4.22;;;17.00;99.90;;;;;;5042781;28;20633;-77
2022/04/23 11:01:31;;;;;;;7.43;3.40;;;16.90;99.90;;;;;;5043713;28;20819;-77
2022/04/23 11:04:22;;;;;;;6.88;3.17;;;16.90;99.90;;;;;;5037402;28;20553;-76
2022/04/23 11:12:41;;;;;;;5.57;2.90;;;16.90;99.90;;;;;;5041829;28;20202;-77
2022/04/23 11:15:20;;;;;;;6.72;2.85;;;16.90;99.90;;;;;;5034711;28;20255;-77
2022/04/23 11:18:01;;;;;;;5.43;2.80;;;16.90;99.90;;;;;;5033378;28;20196;-77
2022/04/23 11:20:33;;;;;;;7.63;3.47;;;16.90;99.90;;;;;;5038585;28;20544;-77
2022/04/23 11:23:04;;;;;;;6.32;3.30;;;16.80;99.90;;;;;;5032134;28;20984;-76
2022/04/23 11:25:35;;;;;;;7.82;3.10;;;16.80;99.90;;;;;;5037908;28;20699;-77
2022/04/23 11:28:23;;;;;;;6.72;3.13;;;16.70;99.90;;;;;;5036078;28;20222;-77
2022/04/23 11:30:57;;;;;;;5.38;2.97;;;16.70;99.90;;;;;;5038108;28;20186;-77
2022/04/23 11:33:29;;;;;;;4.63;2.95;;;16.70;99.90;;;;;;5028420;28;20302;-77
2022/04/23 11:36:01;;;;;;;5.78;3.40;;;16.60;99.90;;;;;;5037732;28;20198;-77
2022/04/23 11:38:33;;;;;;;6.40;3.63;;;16.60;99.90;;;;;;5032737;28;20198;-77
2022/04/23 11:41:04;;;;;;;7.43;3.63;;;16.60;99.90;;;;;;5036612;28;20187;-77
2022/04/23 11:43:37;;;;;;;6.72;3.30;;;16.60;99.90;;;;;;5036637;28;20189;-77
2022/04/23 11:46:09;;;;;;;7.78;3.58;;;16.60;99.90;;;;;;5039486;28;20217;-77
2022/04/23 11:48:51;;;;;;;9.02;3.67;;;16.60;99.90;;;;;;5038858;28;20226;-77
2022/04/23 11:51:24;;;;;;;8.27;3.58;;;16.70;99.90;;;;;;5043076;28;20239;-77
2022/04/23 11:53:58;;;;;;;7.55;3.28;;;16.70;99.90;;;;;;5035754;28;20194;-77
2022/04/23 11:56:32;;;;;;;6.38;3.70;;;16.70;99.90;;;;;;5042120;28;20197;-77
2022/04/23 11:59:05;;;;;;;5.43;3.10;;;16.70;99.90;;;;;;5036595;28;20285;-77
2022/04/23 12:01:38;;;;;;;6.43;3.17;;;16.70;99.90;;;;;;5041369;28;20185;-77
2022/04/23 12:04:10;;;;;;;4.30;3.00;;;16.70;99.90;;;;;;5031605;28;20680;-77
2022/04/23 12:06:48;;;;;;;6.35;3.03;;;16.60;99.90;;;;;;5040258;28;20251;-77
2022/04/23 12:09:18;;;;;;;9.07;3.17;;;16.70;99.90;;;;;;5034178;28;20239;-77
2022/04/23 12:12:02;;;;;;;6.82;3.00;;;16.60;99.90;;;;;;5040547;28;20251;-77
2022/04/23 12:14:33;;;;;;;6.65;2.80;;;16.70;99.90;;;;;;5035942;28;20681;-77
2022/04/23 12:17:11;;;;;;;6.07;2.88;;;16.70;99.90;;;;;;5034151;28;20268;-77
2022/04/23 12:19:43;;;;;;;5.55;3.17;;;16.60;99.90;;;;;;5035691;28;20187;-77
2022/04/23 12:22:23;;;;;;;7.22;3.10;;;16.70;99.90;;;;;;5036885;28;20194;-77
2022/04/23 12:24:54;;;;;;;7.00;3.20;;;16.70;99.90;;;;;;5043302;28;20649;-77
2022/04/23 12:27:25;;;;;;;8.00;3.65;;;16.60;99.90;;;;;;5032221;28;20218;-76
2022/04/23 12:41:15;;;;;;;6.63;3.60;;;16.70;99.90;;;;;;5045455;28;20193;-77
2022/04/23 12:43:47;;;;;;;6.47;3.10;;;16.60;99.90;;;;;;5043854;28;20199;-77
2022/04/23 12:46:18;;;;;;;9.80;3.67;;;16.60;99.90;;;;;;5044113;28;20657;-77
2022/04/23 12:49:03;;;;;;;7.47;3.70;;;16.60;99.90;;;;;;5035194;28;20220;-77
2022/04/23 12:51:52;;;;;;;4.53;3.28;;;16.50;99.90;;;;;;5045064;28;20260;-77
2022/04/23 12:54:23;;;;;;;6.30;3.83;;;16.50;99.90;;;;;;5044254;28;20270;-77
2022/04/23 12:56:54;;;;;;;6.10;3.90;;;16.50;99.90;;;;;;5046841;28;20201;-77
2022/04/23 12:59:25;;;;;;;8.65;4.32;;;16.50;99.90;;;;;;5034761;28;20206;-77
2022/04/23 13:01:59;;;;;;;8.43;4.57;;;16.50;99.90;;;;;;5038308;28;20190;-77
2022/04/23 13:04:29;;;;;;;9.45;4.53;;;16.50;99.90;;;;;;5040599;28;20216;-77
2022/04/23 13:09:48;;;;;;;7.95;4.00;;;16.50;99.90;;;;;;5044803;28;20279;-77
2022/04/23 13:12:19;;;;;;;8.50;4.22;;;16.50;99.90;;;;;;5047966;28;20246;-77
2022/04/23 13:14:49;;;;;;;5.82;3.63;;;16.50;99.90;;;;;;5036427;28;20194;-77
2022/04/23 13:17:20;;;;;;;8.13;4.10;;;16.50;99.90;;;;;;5045715;28;20194;-77
2022/04/23 13:19:51;;;;;;;6.57;4.10;;;16.50;99.90;;;;;;5037898;28;20195;-76
2022/04/23 13:22:24;;;;;;;8.70;3.85;;;16.50;99.90;;;;;;5044742;28;20188;-76
2022/04/23 13:24:54;;;;;;;9.95;4.13;;;16.60;99.90;;;;;;5043312;28;20198;-77
2022/04/23 13:27:25;;;;;;;7.28;3.80;;;16.60;99.90;;;;;;5045395;28;20198;-76
2022/04/23 13:29:56;;;;;;;9.43;3.95;;;16.50;99.90;;;;;;5041388;28;20190;-76
2022/04/23 13:32:27;;;;;;;8.88;3.95;;;16.50;99.90;;;;;;5044591;28;20351;-77
2022/04/23 13:34:58;;;;;;;8.93;4.32;;;16.50;99.90;;;;;;5041687;28;20210;-77
2022/04/23 13:37:30;;;;;;;10.20;4.00;;;16.60;99.90;;;;;;5038497;28;20204;-77
2022/04/23 13:40:01;;;;;;;7.70;4.10;;;16.50;99.90;;;;;;5039073;28;20185;-77
2022/04/23 13:42:32;;;;;;;8.10;3.90;;;16.60;99.90;;;;;;5049535;28;20533;-77
2022/04/23 13:45:05;;;;;;;7.70;3.92;;;16.60;99.90;;;;;;5041089;28;20198;-77
2022/04/23 13:47:36;;;;;;;7.32;3.95;;;16.60;99.90;;;;;;5038363;28;20209;-76